createdAt,value
2022-11-05T00:00:33.285Z,11.80
2022-11-05T00:03:18.800Z,13.07
2022-11-05T00:06:07.524Z,12.57
2022-11-05T00:08:53.619Z,11.97
2022-11-05T00:11:42.464Z,15.17
2022-11-05T00:14:28.143Z,10.60
2022-11-05T00:16:57.601Z,14.17
2022-11-05T00:19:25.620Z,13.60
2022-11-05T00:22:10.884Z,8.97
2022-11-05T00:24:56.195Z,14.23
2022-11-05T00:27:24.128Z,11.83
2022-11-05T00:29:52.150Z,11.07
2022-11-05T00:32:21.585Z,13.23
2022-11-05T00:34:49.575Z,12.13
2022-11-05T00:37:17.671Z,9.87
2022-11-05T00:39:45.729Z,11.93
2022-11-05T00:42:30.979Z,11.77
2022-11-05T00:45:04.810Z,10.90
2022-11-05T00:47:52.380Z,12.57
2022-11-05T00:50:22.147Z,8.67
2022-11-05T00:52:59.825Z,13.67
2022-11-05T00:55:34.734Z,10.17
2022-11-05T00:58:04.724Z,11.63
2022-11-05T01:00:34.715Z,14.77
2022-11-05T01:03:06.160Z,16.97
2022-11-05T01:05:35.400Z,16.83
2022-11-05T01:08:03.353Z,12.63
2022-11-05T01:10:31.488Z,10.90
2022-11-05T01:12:59.866Z,9.93
2022-11-05T01:15:28.096Z,10.23
2022-11-05T01:17:56.130Z,11.57
2022-11-05T01:20:25.513Z,14.77
2022-11-05T01:22:53.524Z,9.97
2022-11-05T01:25:21.574Z,9.73
2022-11-05T01:27:49.933Z,10.97
2022-11-05T01:30:18.288Z,11.07
2022-11-05T01:32:46.284Z,10.67
2022-11-05T01:35:16.326Z,10.27
2022-11-05T01:37:46.665Z,15.03
2022-11-05T01:40:16.956Z,11.33
2022-11-05T01:42:45.415Z,11.67
2022-11-05T01:45:19.305Z,10.50
2022-11-05T01:47:56.461Z,12.43
2022-11-05T01:50:30.849Z,14.37
2022-11-05T01:53:06.952Z,12.47
2022-11-05T01:55:39.361Z,11.37
2022-11-05T01:58:09.051Z,10.50
2022-11-05T02:00:37.890Z,10.87
2022-11-05T02:03:06.198Z,15.67
2022-11-05T02:05:35.282Z,12.37
2022-11-05T02:08:05.136Z,14.57
2022-11-05T02:10:33.723Z,10.10
2022-11-05T02:13:03.639Z,12.83
2022-11-05T02:15:44.337Z,12.53
2022-11-05T02:18:21.810Z,14.17
2022-11-05T02:21:00.102Z,14.07
2022-11-05T02:24:03.904Z,9.87
2022-11-05T02:27:13.869Z,14.73
2022-11-05T02:30:09.373Z,21.13
2022-11-05T02:32:51.635Z,9.77
2022-11-05T02:35:33.175Z,12.03
2022-11-05T02:38:09.558Z,12.37
2022-11-05T02:40:47.735Z,12.10
2022-11-05T02:43:26.332Z,12.67
2022-11-05T02:46:04.379Z,14.57
2022-11-05T02:48:46.111Z,10.27
2022-11-05T02:51:20.658Z,17.03
2022-11-05T02:53:55.162Z,12.90
2022-11-05T02:56:28.189Z,10.20
2022-11-05T02:58:56.120Z,12.53
2022-11-05T03:01:24.197Z,12.33
2022-11-05T03:03:56.977Z,13.17
2022-11-05T03:06:41.055Z,11.40
2022-11-05T03:09:38.733Z,15.30
2022-11-05T03:12:21.487Z,16.50
2022-11-05T03:14:57.918Z,11.70
2022-11-05T03:17:34.941Z,13.23
2022-11-05T03:20:15.237Z,12.07
2022-11-05T03:22:48.796Z,12.77
2022-11-05T03:25:21.721Z,13.23
2022-11-05T03:27:54.148Z,11.83
2022-11-05T03:30:22.400Z,20.40
2022-11-05T03:33:00.252Z,14.77
2022-11-05T03:35:35.712Z,12.47
2022-11-05T03:38:07.882Z,12.40
2022-11-05T03:40:38.089Z,19.93
2022-11-05T03:43:09.937Z,12.80
2022-11-05T03:45:43.054Z,15.10
2022-11-05T03:48:13.980Z,12.30
2022-11-05T03:50:50.595Z,11.63
2022-11-05T03:53:22.621Z,12.27
2022-11-05T03:55:56.919Z,16.23
2022-11-05T03:58:26.107Z,14.20
2022-11-05T04:00:54.479Z,17.47
2022-11-05T04:03:22.429Z,15.33
2022-11-05T04:06:06.248Z,12.60
2022-11-05T04:08:51.683Z,16.20
2022-11-05T04:11:37.192Z,10.43
2022-11-05T04:14:05.139Z,11.87
2022-11-05T04:16:50.566Z,13.80
2022-11-05T04:19:38.446Z,14.70
2022-11-05T04:22:24.217Z,11.60
2022-11-05T04:24:52.144Z,12.40
2022-11-05T04:27:20.078Z,10.17
2022-11-05T04:30:05.517Z,11.70
2022-11-05T04:32:33.628Z,11.50
2022-11-05T04:35:01.575Z,11.53
2022-11-05T04:37:31.016Z,11.67
2022-11-05T04:39:58.963Z,14.70
2022-11-05T04:42:26.876Z,11.53
2022-11-05T04:44:54.827Z,11.43
2022-11-05T04:47:22.827Z,12.13
2022-11-05T04:49:51.142Z,12.73
2022-11-05T04:52:18.998Z,11.17
2022-11-05T04:54:48.375Z,13.37
2022-11-05T04:57:16.317Z,13.17
2022-11-05T04:59:44.284Z,11.80
2022-11-05T05:02:12.220Z,12.33
2022-11-05T05:04:40.140Z,12.20
2022-11-05T05:07:07.986Z,14.73
2022-11-05T05:09:35.898Z,14.30
2022-11-05T05:12:05.370Z,10.70
2022-11-05T05:14:33.476Z,15.37
2022-11-05T05:17:01.533Z,10.50
2022-11-05T05:19:30.079Z,13.57
2022-11-05T05:21:57.009Z,14.40
2022-11-05T05:24:25.298Z,14.43
2022-11-05T05:26:53.180Z,15.20
2022-11-05T05:29:22.486Z,12.13
2022-11-05T05:31:50.360Z,15.23
2022-11-05T05:34:18.259Z,12.00
2022-11-05T05:36:46.141Z,14.13
2022-11-05T05:39:14.586Z,13.67
2022-11-05T05:41:43.536Z,16.03
2022-11-05T05:44:11.466Z,15.93
2022-11-05T05:46:40.846Z,16.47
2022-11-05T05:49:12.714Z,14.83
2022-11-05T05:51:41.203Z,18.57
2022-11-05T05:54:09.423Z,18.73
2022-11-05T05:56:37.330Z,17.57
2022-11-05T05:59:06.977Z,17.60
2022-11-05T06:01:36.062Z,17.63
2022-11-05T06:04:06.001Z,17.70
2022-11-05T06:06:34.216Z,22.03
2022-11-05T06:09:02.213Z,20.33
2022-11-05T06:11:30.101Z,18.17
2022-11-05T06:13:58.056Z,21.27
2022-11-05T06:16:26.023Z,16.93
2022-11-05T06:18:53.940Z,17.00
2022-11-05T06:21:23.441Z,17.00
2022-11-05T06:23:51.336Z,20.97
2022-11-05T06:26:19.827Z,18.13
2022-11-05T06:28:48.025Z,16.97
2022-11-05T06:31:16.202Z,17.03
2022-11-05T06:33:44.071Z,18.73
2022-11-05T06:36:16.443Z,18.13
2022-11-05T06:38:46.011Z,17.50
2022-11-05T06:41:14.141Z,15.73
2022-11-05T06:43:42.545Z,21.70
2022-11-05T06:46:12.073Z,20.07
2022-11-05T06:48:41.144Z,21.63
2022-11-05T06:51:09.766Z,21.90
2022-11-05T06:53:37.979Z,24.67
2022-11-05T06:56:08.952Z,19.40
2022-11-05T06:58:36.950Z,20.17
2022-11-05T07:01:08.123Z,20.27
2022-11-05T07:03:36.403Z,21.63
2022-11-05T07:06:05.678Z,21.33
2022-11-05T07:08:34.592Z,19.57
2022-11-05T07:11:02.815Z,18.77
2022-11-05T07:13:32.085Z,23.23
2022-11-05T07:16:00.220Z,20.67
2022-11-05T07:18:28.170Z,26.30
2022-11-05T07:20:56.170Z,21.60
2022-11-05T07:23:24.055Z,23.23
2022-11-05T07:25:52.000Z,21.67
2022-11-05T07:28:20.201Z,20.63
2022-11-05T07:30:49.704Z,29.03
2022-11-05T07:33:17.817Z,25.43
2022-11-05T07:35:45.915Z,22.27
2022-11-05T07:38:14.063Z,23.07
2022-11-05T07:40:42.200Z,22.13
2022-11-05T07:43:10.588Z,23.97
2022-11-05T07:45:38.846Z,23.10
2022-11-05T07:48:08.615Z,23.67
2022-11-05T07:50:37.825Z,29.10
2022-11-05T07:53:07.351Z,25.20
2022-11-05T07:55:35.490Z,24.43
2022-11-05T07:58:03.785Z,25.67
2022-11-05T08:00:32.204Z,25.03
2022-11-05T08:03:07.358Z,22.20
2022-11-05T08:05:39.586Z,25.40
2022-11-05T08:08:09.129Z,23.87
2022-11-05T08:10:37.760Z,21.77
2022-11-05T08:13:06.801Z,24.60
2022-11-05T08:15:35.716Z,25.50
2022-11-05T08:18:05.640Z,25.07
2022-11-05T08:20:34.146Z,29.10
2022-11-05T08:23:03.994Z,23.60
2022-11-05T08:25:32.841Z,22.23
2022-11-05T08:28:02.899Z,22.60
2022-11-05T08:30:31.904Z,32.17
2022-11-05T08:33:01.445Z,23.10
2022-11-05T08:35:30.558Z,23.23
2022-11-05T08:38:00.687Z,26.43
2022-11-05T08:40:31.695Z,28.27
2022-11-05T08:43:00.558Z,34.03
2022-11-05T08:45:29.106Z,21.10
2022-11-05T08:48:00.643Z,22.33
2022-11-05T08:50:28.853Z,22.37
2022-11-05T08:52:56.873Z,27.20
2022-11-05T08:55:25.149Z,20.03
2022-11-05T08:57:58.189Z,19.73
2022-11-05T09:00:26.440Z,21.20
2022-11-05T09:02:54.628Z,21.03
2022-11-05T09:05:22.922Z,21.83
2022-11-05T09:07:53.143Z,22.70
2022-11-05T09:10:24.996Z,22.47
2022-11-05T09:12:52.985Z,20.80
2022-11-05T09:15:23.325Z,21.50
2022-11-05T09:17:51.557Z,20.20
2022-11-05T09:20:19.975Z,28.33
2022-11-05T09:22:47.927Z,20.00
2022-11-05T09:25:16.471Z,17.80
2022-11-05T09:27:44.489Z,28.17
2022-11-05T09:30:14.603Z,17.03
2022-11-05T09:32:44.072Z,20.60
2022-11-05T09:35:11.999Z,17.57
2022-11-05T09:37:40.412Z,17.50
2022-11-05T09:40:09.038Z,17.30
2022-11-05T09:42:42.366Z,20.20
2022-11-05T09:45:16.390Z,16.67
2022-11-05T09:47:50.129Z,21.23
2022-11-05T09:50:21.754Z,18.37
2022-11-05T09:52:49.975Z,13.93
2022-11-05T09:55:27.913Z,16.60
2022-11-05T09:58:00.140Z,16.37
2022-11-05T10:00:28.820Z,22.83
2022-11-05T10:03:01.195Z,17.47
2022-11-05T10:05:29.949Z,21.17
2022-11-05T10:08:03.009Z,17.10
2022-11-05T10:10:40.831Z,14.30
2022-11-05T10:13:17.362Z,13.83
2022-11-05T10:15:54.025Z,18.33
2022-11-05T10:18:28.479Z,18.23
2022-11-05T10:20:57.148Z,17.37
2022-11-05T10:23:27.869Z,17.57
2022-11-05T10:25:58.446Z,17.80
2022-11-05T10:28:29.097Z,13.73
2022-11-05T10:31:00.700Z,12.13
2022-11-05T10:33:34.744Z,13.87
2022-11-05T10:36:06.330Z,15.40
2022-11-05T10:38:34.818Z,11.97
2022-11-05T10:41:21.500Z,12.87
2022-11-05T10:43:52.534Z,11.50
2022-11-05T10:46:30.480Z,12.93
2022-11-05T10:49:20.507Z,15.50
2022-11-05T10:51:55.268Z,14.93
2022-11-05T10:54:25.457Z,11.00
2022-11-05T10:56:53.453Z,12.80
2022-11-05T10:59:23.535Z,14.63
2022-11-05T11:01:58.254Z,14.27
2022-11-05T11:04:34.906Z,16.20
2022-11-05T11:07:05.918Z,13.50
2022-11-05T11:09:37.664Z,14.87
2022-11-05T11:12:08.923Z,12.37
2022-11-05T11:14:36.908Z,9.47
2022-11-05T11:17:19.080Z,14.63
2022-11-05T11:19:48.418Z,11.23
2022-11-05T11:22:21.947Z,12.80
2022-11-05T11:24:53.850Z,10.70
2022-11-05T11:27:26.001Z,12.73
2022-11-05T11:29:58.969Z,9.10
2022-11-05T11:32:33.635Z,10.77
2022-11-05T11:35:03.864Z,7.23
2022-11-05T11:37:35.041Z,9.93
2022-11-05T11:40:10.004Z,11.60
2022-11-05T11:42:42.419Z,12.93
2022-11-05T11:45:18.623Z,10.43
2022-11-05T11:47:50.041Z,8.07
2022-11-05T11:50:42.302Z,10.33
2022-11-05T11:53:31.831Z,10.60
2022-11-05T11:56:06.172Z,9.57
2022-11-05T11:58:40.928Z,7.00
2022-11-05T12:01:43.655Z,5.33
2022-11-05T12:04:23.957Z,7.40
2022-11-05T12:07:02.959Z,8.37
2022-11-05T12:09:45.429Z,8.67
2022-11-05T12:12:15.753Z,7.63
2022-11-05T12:14:52.578Z,6.50
2022-11-05T12:17:31.593Z,52.37
2022-11-05T12:20:24.904Z,6.33
2022-11-05T12:23:14.560Z,5.97
2022-11-05T12:25:49.770Z,7.23
2022-11-05T12:28:51.859Z,9.63
2022-11-05T12:31:36.129Z,9.13
2022-11-05T12:34:24.004Z,15.20
2022-11-05T12:37:12.751Z,33.93
2022-11-05T12:40:04.486Z,7.13
2022-11-05T12:42:53.050Z,9.63
2022-11-05T12:45:31.891Z,9.70
2022-11-05T12:48:12.994Z,10.73
2022-11-05T12:50:45.380Z,9.77
2022-11-05T12:53:30.433Z,7.33
2022-11-05T12:56:07.922Z,10.53
2022-11-05T12:58:40.740Z,10.50
2022-11-05T13:01:12.909Z,7.13
2022-11-05T13:03:45.588Z,7.53
2022-11-05T13:06:15.321Z,7.73
2022-11-05T13:08:50.063Z,11.30
2022-11-05T13:11:24.298Z,9.07
2022-11-05T13:14:02.751Z,5.00
2022-11-05T13:16:35.020Z,11.77
2022-11-05T13:19:13.989Z,6.80
2022-11-05T13:21:44.173Z,7.23
2022-11-05T13:24:18.767Z,6.60
2022-11-05T13:26:54.311Z,6.00
2022-11-05T13:29:27.253Z,8.87
2022-11-05T13:32:01.445Z,7.50
2022-11-05T13:34:34.848Z,9.80
2022-11-05T13:37:25.865Z,10.00
2022-11-05T13:39:57.388Z,7.77
2022-11-05T13:42:54.380Z,14.53
2022-11-05T13:45:39.232Z,9.17
2022-11-05T13:48:28.400Z,6.90
2022-11-05T13:51:36.171Z,10.63
2022-11-05T13:54:37.916Z,6.07
2022-11-05T13:57:24.080Z,8.70
2022-11-05T14:00:12.736Z,10.90
2022-11-05T14:02:44.676Z,7.73
2022-11-05T14:05:29.215Z,10.10
2022-11-05T14:08:00.406Z,6.60
2022-11-05T14:10:37.450Z,9.37
2022-11-05T14:13:19.042Z,7.30
2022-11-05T14:15:58.744Z,5.83
2022-11-05T14:18:38.986Z,6.60
2022-11-05T14:21:28.035Z,6.27
2022-11-05T14:23:58.857Z,7.27
2022-11-05T14:26:28.603Z,8.03
2022-11-05T14:29:38.532Z,6.70
2022-11-05T14:32:26.355Z,5.33
2022-11-05T14:35:04.056Z,6.27
2022-11-05T14:37:36.993Z,6.60
2022-11-05T14:40:33.982Z,11.47
2022-11-05T14:43:04.497Z,9.40
2022-11-05T14:45:36.349Z,7.63
2022-11-05T14:48:06.981Z,7.60
2022-11-05T14:50:38.801Z,10.47
2022-11-05T14:53:25.616Z,6.77
2022-11-05T14:56:02.137Z,9.13
2022-11-05T14:58:36.581Z,5.60
2022-11-05T15:01:07.656Z,6.87
2022-11-05T15:04:12.231Z,5.40
2022-11-05T15:06:40.746Z,5.07
2022-11-05T15:09:24.682Z,5.43
2022-11-05T15:12:09.080Z,6.57
2022-11-05T15:14:42.892Z,8.00
2022-11-05T15:17:18.877Z,11.03
2022-11-05T15:19:48.130Z,4.87
2022-11-05T15:22:30.914Z,3.70
2022-11-05T15:24:59.838Z,7.13
2022-11-05T15:27:45.281Z,6.80
2022-11-05T15:30:18.904Z,6.83
2022-11-05T15:32:46.847Z,15.07
2022-11-05T15:35:27.206Z,7.63
2022-11-05T15:38:01.768Z,5.50
2022-11-05T15:40:32.543Z,7.17
2022-11-05T15:43:16.438Z,6.47
2022-11-05T15:45:44.355Z,10.10
2022-11-05T15:48:16.861Z,7.77
2022-11-05T15:50:44.877Z,6.00
2022-11-05T15:53:47.458Z,6.83
2022-11-05T15:56:22.967Z,11.97
2022-11-05T15:58:55.770Z,6.13
2022-11-05T16:01:27.940Z,7.53
2022-11-05T16:03:58.852Z,11.70
2022-11-05T16:06:35.559Z,8.33
2022-11-05T16:09:04.083Z,10.40
2022-11-05T16:11:32.591Z,4.87
2022-11-05T16:14:18.314Z,6.70
2022-11-05T16:16:47.399Z,6.20
2022-11-05T16:19:40.908Z,7.60
2022-11-05T16:22:09.830Z,7.93
2022-11-05T16:24:37.852Z,7.63
2022-11-05T16:27:06.412Z,5.73
2022-11-05T16:29:40.608Z,7.17
2022-11-05T16:32:16.910Z,5.37
2022-11-05T16:34:49.389Z,7.60
2022-11-05T16:37:20.458Z,9.97
2022-11-05T16:39:48.548Z,4.97
2022-11-05T16:42:40.560Z,6.17
2022-11-05T16:45:13.750Z,5.40
2022-11-05T16:47:42.587Z,6.20
2022-11-05T16:50:23.656Z,5.37
2022-11-05T16:52:51.742Z,6.80
2022-11-05T16:55:20.425Z,4.33
2022-11-05T16:57:52.412Z,4.87
2022-11-05T17:00:23.127Z,4.70
2022-11-05T17:02:51.633Z,7.10
2022-11-05T17:05:23.284Z,5.57
2022-11-05T17:07:51.827Z,4.93
2022-11-05T17:10:20.786Z,3.90
2022-11-05T17:12:48.947Z,3.83
2022-11-05T17:15:24.661Z,5.23
2022-11-05T17:17:53.755Z,3.40
2022-11-05T17:20:28.511Z,4.87
2022-11-05T17:22:57.804Z,4.40
2022-11-05T17:25:26.411Z,5.33
2022-11-05T17:27:54.791Z,10.83
2022-11-05T17:30:25.502Z,3.33
2022-11-05T17:32:53.776Z,6.37
2022-11-05T17:35:22.106Z,8.33
2022-11-05T17:37:50.334Z,4.13
2022-11-05T17:40:20.184Z,5.47
2022-11-05T17:42:48.372Z,4.67
2022-11-05T17:45:17.136Z,7.03
2022-11-05T17:47:46.860Z,5.67
2022-11-05T17:50:16.274Z,5.73
2022-11-05T17:52:44.835Z,5.23
2022-11-05T17:55:17.707Z,5.83
2022-11-05T17:57:47.396Z,8.50
2022-11-05T18:00:17.001Z,6.07
2022-11-05T18:02:48.553Z,5.90
2022-11-05T18:05:17.036Z,3.97
2022-11-05T18:07:45.294Z,12.00
2022-11-05T18:10:13.506Z,4.43
2022-11-05T18:12:42.019Z,4.07
2022-11-05T18:15:10.798Z,6.53
2022-11-05T18:17:38.724Z,8.47
2022-11-05T18:20:17.365Z,6.43
2022-11-05T18:22:47.206Z,9.53
2022-11-05T18:25:15.226Z,5.97
2022-11-05T18:27:43.398Z,8.27
2022-11-05T18:30:15.383Z,6.07
2022-11-05T18:32:44.430Z,7.23
2022-11-05T18:35:14.690Z,5.03
2022-11-05T18:37:43.458Z,7.37
2022-11-05T18:40:12.113Z,5.13
2022-11-05T18:42:40.440Z,9.50
2022-11-05T18:45:09.875Z,5.77
2022-11-05T18:47:38.061Z,4.10
2022-11-05T18:50:07.823Z,4.93
2022-11-05T18:52:37.273Z,7.80
2022-11-05T18:55:05.932Z,6.43
2022-11-05T18:57:34.989Z,5.03
2022-11-05T19:00:03.119Z,5.20
2022-11-05T19:02:31.187Z,5.90
2022-11-05T19:05:28.411Z,7.30
2022-11-05T19:07:48.935Z,7.90
2022-11-05T19:10:17.348Z,6.17
2022-11-05T19:12:45.415Z,4.27
2022-11-05T19:15:13.483Z,4.07
2022-11-05T19:17:41.638Z,4.47
2022-11-05T19:20:10.334Z,4.70
2022-11-05T19:22:38.456Z,6.97
2022-11-05T19:25:08.973Z,5.03
2022-11-05T19:27:37.582Z,7.57
2022-11-05T19:30:06.610Z,7.03
2022-11-05T19:32:34.839Z,5.03
2022-11-05T19:35:02.708Z,3.87
2022-11-05T19:37:30.638Z,8.63
2022-11-05T19:39:58.561Z,11.33
2022-11-05T19:42:28.328Z,6.87
2022-11-05T19:44:56.279Z,6.37
2022-11-05T19:47:24.265Z,9.13
2022-11-05T19:49:52.255Z,6.57
2022-11-05T19:52:20.248Z,8.47
2022-11-05T19:54:48.199Z,9.83
2022-11-05T19:57:16.261Z,6.47
2022-11-05T19:59:45.580Z,4.30
2022-11-05T20:02:16.239Z,6.30
2022-11-05T20:04:45.203Z,5.07
2022-11-05T20:07:13.268Z,7.40
2022-11-05T20:09:41.490Z,9.50
2022-11-05T20:12:09.496Z,12.87
2022-11-05T20:14:37.633Z,9.57
2022-11-05T20:17:06.970Z,7.87
2022-11-05T20:19:35.430Z,6.70
2022-11-05T20:22:03.470Z,5.47
2022-11-05T20:24:31.540Z,9.30
2022-11-05T20:26:59.488Z,6.97
2022-11-05T20:29:34.750Z,8.17
2022-11-05T20:32:03.904Z,7.10
2022-11-05T20:34:35.066Z,7.17
2022-11-05T20:37:03.286Z,7.40
2022-11-05T20:39:31.453Z,7.57
2022-11-05T20:42:00.686Z,8.07
2022-11-05T20:44:29.101Z,10.60
2022-11-05T20:46:57.004Z,5.70
2022-11-05T20:49:25.806Z,10.73
2022-11-05T20:51:55.556Z,7.27
2022-11-05T20:54:23.588Z,7.63
2022-11-05T20:56:51.617Z,6.93
2022-11-05T20:59:19.488Z,6.20
2022-11-05T21:01:47.518Z,7.87
2022-11-05T21:04:15.502Z,9.70
2022-11-05T21:06:43.436Z,14.53
2022-11-05T21:09:13.257Z,12.67
2022-11-05T21:11:58.653Z,9.47
2022-11-05T21:14:26.752Z,5.50
2022-11-05T21:16:54.632Z,10.03
2022-11-05T21:19:24.151Z,11.13
2022-11-05T21:21:52.377Z,7.90
2022-11-05T21:24:22.352Z,6.83
2022-11-05T21:26:51.144Z,8.03
2022-11-05T21:29:19.668Z,9.20
2022-11-05T21:31:47.701Z,10.03
2022-11-05T21:34:15.785Z,10.20
2022-11-05T21:36:43.665Z,9.13
2022-11-05T21:39:13.609Z,7.60
2022-11-05T21:41:43.742Z,7.87
2022-11-05T21:44:12.379Z,9.37
2022-11-05T21:46:40.299Z,5.93
2022-11-05T21:49:09.402Z,7.03
2022-11-05T21:51:54.856Z,7.83
2022-11-05T21:54:40.264Z,8.83
2022-11-05T21:57:32.962Z,6.37
2022-11-05T22:00:01.783Z,10.47
2022-11-05T22:02:30.665Z,6.17
2022-11-05T22:05:00.278Z,8.37
2022-11-05T22:07:30.048Z,7.60
2022-11-05T22:09:58.044Z,7.70
2022-11-05T22:12:27.562Z,7.00
2022-11-05T22:14:56.634Z,6.50
2022-11-05T22:17:24.895Z,5.93
2022-11-05T22:19:52.935Z,6.97
2022-11-05T22:22:20.905Z,7.93
2022-11-05T22:24:48.776Z,5.57
2022-11-05T22:27:18.917Z,7.23
2022-11-05T22:29:48.375Z,7.00
2022-11-05T22:32:16.923Z,9.30
2022-11-05T22:34:44.813Z,9.00
2022-11-05T22:37:13.845Z,10.07
2022-11-05T22:39:41.916Z,7.83
2022-11-05T22:42:10.096Z,8.47
2022-11-05T22:44:38.657Z,9.67
2022-11-05T22:47:08.139Z,4.57
2022-11-05T22:49:36.275Z,6.60
2022-11-05T22:52:04.500Z,7.53
2022-11-05T22:54:37.933Z,5.80
2022-11-05T22:57:07.097Z,7.63
2022-11-05T22:59:35.013Z,9.60
2022-11-05T23:02:09.150Z,9.93
2022-11-05T23:04:39.530Z,4.97
2022-11-05T23:07:27.842Z,5.00
2022-11-05T23:10:15.855Z,6.43
2022-11-05T23:12:44.725Z,7.90
2022-11-05T23:15:34.526Z,5.90
2022-11-05T23:18:19.897Z,10.80
2022-11-05T23:21:06.719Z,5.83
2022-11-05T23:23:52.095Z,6.07
2022-11-05T23:26:37.541Z,7.70
2022-11-05T23:29:05.616Z,8.70
2022-11-05T23:31:50.765Z,5.50
2022-11-05T23:34:18.781Z,6.87
2022-11-05T23:37:05.657Z,9.07
2022-11-05T23:39:38.222Z,11.30
2022-11-05T23:42:26.657Z,5.57
2022-11-05T23:45:14.580Z,4.30
2022-11-05T23:48:00.192Z,5.37
2022-11-05T23:50:28.482Z,6.87
2022-11-05T23:52:58.297Z,5.93
2022-11-05T23:55:26.967Z,6.30
2022-11-05T23:57:55.173Z,5.47
